sensor_id;sensor_type;location;lat;lon;timestamp;P1;durP1;ratioP1;P2;durP2;ratioP2
8129;SDS011;4106;52.532;13.408;2022-09-09T09:19:22;8.02;;;1.73;;
8129;SDS011;4106;52.532;13.408;2022-09-09T09:21:54;3.28;;;1.95;;
8129;SDS011;4106;52.532;13.408;2022-09-09T09:24:22;3.05;;;1.65;;
8129;SDS011;4106;52.532;13.408;2022-09-09T09:26:49;3.05;;;1.58;;
8129;SDS011;4106;52.532;13.408;2022-09-09T09:29:19;2.08;;;1.33;;
8129;SDS011;4106;52.532;13.408;2022-09-09T09:31:50;2.30;;;1.52;;
8129;SDS011;4106;52.532;13.408;2022-09-09T09:34:17;3.42;;;1.87;;
8129;SDS011;4106;52.532;13.408;2022-09-09T09:36:52;6.62;;;2.00;;
8129;SDS011;4106;52.532;13.408;2022-09-09T09:39:22;7.10;;;2.17;;
8129;SDS011;4106;52.532;13.408;2022-09-09T09:41:50;4.20;;;1.90;;
8129;SDS011;4106;52.532;13.408;2022-09-09T09:49:29;121.20;;;28.77;;
8129;SDS011;4106;52.532;13.408;2022-09-09T09:52:00;113.68;;;26.40;;
8129;SDS011;4106;52.532;13.408;2022-09-09T09:54:44;94.30;;;19.90;;
8129;SDS011;4106;52.532;13.408;2022-09-09T09:57:13;68.62;;;16.98;;
8129;SDS011;4106;52.532;13.408;2022-09-09T09:59:41;47.42;;;11.77;;
8129;SDS011;4106;52.532;13.408;2022-09-09T10:02:17;32.22;;;9.18;;
8129;SDS011;4106;52.532;13.408;2022-09-09T10:04:44;40.15;;;12.35;;
8129;SDS011;4106;52.532;13.408;2022-09-09T10:07:21;28.38;;;7.62;;
8129;SDS011;4106;52.532;13.408;2022-09-09T10:09:53;19.37;;;7.37;;
8129;SDS011;4106;52.532;13.408;2022-09-09T10:12:25;9.52;;;3.80;;
8129;SDS011;4106;52.532;13.408;2022-09-09T10:17:52;9.00;;;3.05;;
8129;SDS011;4106;52.532;13.408;2022-09-09T10:20:17;7.40;;;2.60;;
8129;SDS011;4106;52.532;13.408;2022-09-09T10:22:47;9.65;;;2.78;;
8129;SDS011;4106;52.532;13.408;2022-09-09T10:30:24;17.83;;;5.50;;
8129;SDS011;4106;52.532;13.408;2022-09-09T10:32:55;13.25;;;4.40;;
8129;SDS011;4106;52.532;13.408;2022-09-09T10:40:38;5.57;;;2.85;;
8129;SDS011;4106;52.532;13.408;2022-09-09T10:45:52;6.72;;;2.50;;
8129;SDS011;4106;52.532;13.408;2022-09-09T10:48:21;4.97;;;2.17;;
8129;SDS011;4106;52.532;13.408;2022-09-09T10:50:50;5.75;;;2.20;;
8129;SDS011;4106;52.532;13.408;2022-09-09T10:53:20;6.90;;;2.22;;
8129;SDS011;4106;52.532;13.408;2022-09-09T10:55:48;3.97;;;1.75;;
8129;SDS011;4106;52.532;13.408;2022-09-09T10:58:18;5.20;;;1.50;;
8129;SDS011;4106;52.532;13.408;2022-09-09T11:00:47;2.62;;;1.27;;
8129;SDS011;4106;52.532;13.408;2022-09-09T11:03:20;2.55;;;1.50;;
8129;SDS011;4106;52.532;13.408;2022-09-09T11:05:49;3.03;;;1.50;;
8129;SDS011;4106;52.532;13.408;2022-09-09T11:08:19;1.58;;;1.20;;
8129;SDS011;4106;52.532;13.408;2022-09-09T11:10:50;5.47;;;1.75;;
8129;SDS011;4106;52.532;13.408;2022-09-09T11:13:22;2.25;;;1.60;;
8129;SDS011;4106;52.532;13.408;2022-09-09T11:15:50;4.05;;;1.80;;
8129;SDS011;4106;52.532;13.408;2022-09-09T11:18:19;4.53;;;1.70;;
8129;SDS011;4106;52.532;13.408;2022-09-09T11:20:52;2.15;;;1.30;;
8129;SDS011;4106;52.532;13.408;2022-09-09T11:23:20;3.15;;;1.73;;
8129;SDS011;4106;52.532;13.408;2022-09-09T11:25:49;2.50;;;1.42;;
8129;SDS011;4106;52.532;13.408;2022-09-09T11:31:08;3.50;;;1.60;;
8129;SDS011;4106;52.532;13.408;2022-09-09T11:33:47;2.72;;;1.67;;
8129;SDS011;4106;52.532;13.408;2022-09-09T11:36:22;4.20;;;1.55;;
8129;SDS011;4106;52.532;13.408;2022-09-09T11:38:45;2.55;;;1.60;;
8129;SDS011;4106;52.532;13.408;2022-09-09T11:41:14;5.12;;;1.40;;
8129;SDS011;4106;52.532;13.408;2022-09-09T11:43:43;5.10;;;2.10;;
8129;SDS011;4106;52.532;13.408;2022-09-09T11:46:12;4.37;;;1.50;;
8129;SDS011;4106;52.532;13.408;2022-09-09T11:48:41;1.85;;;1.25;;
8129;SDS011;4106;52.532;13.408;2022-09-09T11:51:13;2.90;;;1.40;;
8129;SDS011;4106;52.532;13.408;2022-09-09T11:56:24;2.08;;;1.50;;
8129;SDS011;4106;52.532;13.408;2022-09-09T12:01:27;2.65;;;1.40;;
8129;SDS011;4106;52.532;13.408;2022-09-09T12:06:30;3.10;;;1.60;;
8129;SDS011;4106;52.532;13.408;2022-09-09T12:09:06;2.65;;;1.62;;
8129;SDS011;4106;52.532;13.408;2022-09-09T12:11:34;4.50;;;1.10;;
8129;SDS011;4106;52.532;13.408;2022-09-09T12:14:03;3.10;;;1.50;;
8129;SDS011;4106;52.532;13.408;2022-09-09T12:16:34;4.10;;;1.20;;
8129;SDS011;4106;52.532;13.408;2022-09-09T12:19:04;3.60;;;1.20;;
8129;SDS011;4106;52.532;13.408;2022-09-09T12:22:06;2.22;;;1.17;;
8129;SDS011;4106;52.532;13.408;2022-09-09T12:24:19;2.75;;;1.10;;
8129;SDS011;4106;52.532;13.408;2022-09-09T12:26:47;2.67;;;1.33;;
8129;SDS011;4106;52.532;13.408;2022-09-09T12:29:23;2.42;;;1.12;;
8129;SDS011;4106;52.532;13.408;2022-09-09T12:31:55;2.35;;;1.35;;
8129;SDS011;4106;52.532;13.408;2022-09-09T12:34:25;3.03;;;1.37;;
8129;SDS011;4106;52.532;13.408;2022-09-09T12:36:51;1.35;;;1.23;;
8129;SDS011;4106;52.532;13.408;2022-09-09T12:39:27;3.67;;;1.20;;
8129;SDS011;4106;52.532;13.408;2022-09-09T12:41:50;1.42;;;1.10;;
8129;SDS011;4106;52.532;13.408;2022-09-09T12:44:18;3.55;;;1.25;;
8129;SDS011;4106;52.532;13.408;2022-09-09T12:46:47;2.30;;;1.12;;
8129;SDS011;4106;52.532;13.408;2022-09-09T12:49:23;2.67;;;1.27;;
8129;SDS011;4106;52.532;13.408;2022-09-09T12:51:47;1.98;;;1.20;;
8129;SDS011;4106;52.532;13.408;2022-09-09T12:54:15;2.45;;;1.10;;
8129;SDS011;4106;52.532;13.408;2022-09-09T12:56:46;2.87;;;1.12;;
8129;SDS011;4106;52.532;13.408;2022-09-09T13:01:54;0.85;;;0.80;;
8129;SDS011;4106;52.532;13.408;2022-09-09T13:04:19;1.67;;;1.10;;
8129;SDS011;4106;52.532;13.408;2022-09-09T13:06:46;4.35;;;1.20;;
8129;SDS011;4106;52.532;13.408;2022-09-09T13:09:15;1.73;;;1.25;;
8129;SDS011;4106;52.532;13.408;2022-09-09T13:11:47;3.58;;;1.40;;
8129;SDS011;4106;52.532;13.408;2022-09-09T13:14:18;2.05;;;1.15;;
8129;SDS011;4106;52.532;13.408;2022-09-09T13:19:21;5.78;;;1.52;;
8129;SDS011;4106;52.532;13.408;2022-09-09T13:21:50;3.72;;;1.48;;
8129;SDS011;4106;52.532;13.408;2022-09-09T13:24:26;1.77;;;1.33;;
8129;SDS011;4106;52.532;13.408;2022-09-09T13:26:56;4.50;;;1.60;;
8129;SDS011;4106;52.532;13.408;2022-09-09T13:29:24;2.28;;;1.12;;
8129;SDS011;4106;52.532;13.408;2022-09-09T13:31:53;1.77;;;1.10;;
8129;SDS011;4106;52.532;13.408;2022-09-09T13:34:26;2.12;;;1.15;;
8129;SDS011;4106;52.532;13.408;2022-09-09T13:36:58;1.02;;;0.90;;
8129;SDS011;4106;52.532;13.408;2022-09-09T13:39:25;2.03;;;1.08;;
8129;SDS011;4106;52.532;13.408;2022-09-09T13:41:54;3.12;;;1.50;;
8129;SDS011;4106;52.532;13.408;2022-09-09T13:44:24;2.80;;;1.37;;
8129;SDS011;4106;52.532;13.408;2022-09-09T13:47:06;3.15;;;1.10;;
8129;SDS011;4106;52.532;13.408;2022-09-09T13:49:35;2.00;;;1.30;;
8129;SDS011;4106;52.532;13.408;2022-09-09T13:52:05;2.37;;;1.00;;
8129;SDS011;4106;52.532;13.408;2022-09-09T13:54:33;4.65;;;1.52;;
8129;SDS011;4106;52.532;13.408;2022-09-09T13:57:02;4.53;;;1.42;;
8129;SDS011;4106;52.532;13.408;2022-09-09T13:59:31;2.87;;;1.30;;
8129;SDS011;4106;52.532;13.408;2022-09-09T14:02:00;1.15;;;1.00;;
8129;SDS011;4106;52.532;13.408;2022-09-09T14:04:28;2.28;;;1.20;;
8129;SDS011;4106;52.532;13.408;2022-09-09T14:06:57;2.62;;;1.55;;
8129;SDS011;4106;52.532;13.408;2022-09-09T14:09:26;8.45;;;1.60;;
8129;SDS011;4106;52.532;13.408;2022-09-09T14:11:55;8.48;;;1.87;;
8129;SDS011;4106;52.532;13.408;2022-09-09T14:14:24;7.37;;;1.55;;
8129;SDS011;4106;52.532;13.408;2022-09-09T14:16:53;3.42;;;1.23;;
8129;SDS011;4106;52.532;13.408;2022-09-09T14:19:21;1.83;;;1.30;;
8129;SDS011;4106;52.532;13.408;2022-09-09T14:21:50;2.83;;;1.25;;
8129;SDS011;4106;52.532;13.408;2022-09-09T14:24:19;2.90;;;1.12;;
8129;SDS011;4106;52.532;13.408;2022-09-09T14:26:48;2.03;;;1.20;;
8129;SDS011;4106;52.532;13.408;2022-09-09T14:29:17;2.00;;;1.17;;
8129;SDS011;4106;52.532;13.408;2022-09-09T14:31:46;3.85;;;1.50;;
8129;SDS011;4106;52.532;13.408;2022-09-09T14:34:15;2.25;;;1.00;;
8129;SDS011;4106;52.532;13.408;2022-09-09T14:36:43;2.33;;;1.08;;
8129;SDS011;4106;52.532;13.408;2022-09-09T14:39:12;19.60;;;2.15;;
8129;SDS011;4106;52.532;13.408;2022-09-09T14:41:41;3.00;;;1.35;;
8129;SDS011;4106;52.532;13.408;2022-09-09T14:44:10;3.58;;;1.30;;
8129;SDS011;4106;52.532;13.408;2022-09-09T14:46:39;3.35;;;1.30;;
8129;SDS011;4106;52.532;13.408;2022-09-09T14:49:08;1.87;;;1.10;;
8129;SDS011;4106;52.532;13.408;2022-09-09T14:51:36;2.53;;;1.37;;
8129;SDS011;4106;52.532;13.408;2022-09-09T14:54:05;2.67;;;1.30;;
8129;SDS011;4106;52.532;13.408;2022-09-09T14:56:34;4.87;;;1.20;;
8129;SDS011;4106;52.532;13.408;2022-09-09T14:59:03;5.00;;;1.52;;
8129;SDS011;4106;52.532;13.408;2022-09-09T15:01:32;1.20;;;1.05;;
8129;SDS011;4106;52.532;13.408;2022-09-09T15:04:02;2.67;;;1.30;;
8129;SDS011;4106;52.532;13.408;2022-09-09T15:06:32;2.92;;;1.25;;
8129;SDS011;4106;52.532;13.408;2022-09-09T15:08:59;1.95;;;0.90;;
8129;SDS011;4106;52.532;13.408;2022-09-09T15:11:28;2.40;;;1.37;;
8129;SDS011;4106;52.532;13.408;2022-09-09T15:13:57;2.25;;;1.10;;
8129;SDS011;4106;52.532;13.408;2022-09-09T15:16:27;3.30;;;1.35;;
8129;SDS011;4106;52.532;13.408;2022-09-09T15:18:56;2.70;;;1.10;;
8129;SDS011;4106;52.532;13.408;2022-09-09T15:21:25;2.17;;;1.55;;
8129;SDS011;4106;52.532;13.408;2022-09-09T15:23:53;2.33;;;1.05;;
8129;SDS011;4106;52.532;13.408;2022-09-09T15:26:22;3.40;;;1.30;;
8129;SDS011;4106;52.532;13.408;2022-09-09T15:28:50;2.62;;;1.30;;
8129;SDS011;4106;52.532;13.408;2022-09-09T15:31:20;3.33;;;1.33;;
8129;SDS011;4106;52.532;13.408;2022-09-09T15:33:50;3.65;;;1.10;;
8129;SDS011;4106;52.532;13.408;2022-09-09T15:36:20;2.75;;;1.20;;
8129;SDS011;4106;52.532;13.408;2022-09-09T15:38:48;1.30;;;0.95;;
8129;SDS011;4106;52.532;13.408;2022-09-09T15:41:17;2.37;;;1.20;;
8129;SDS011;4106;52.532;13.408;2022-09-09T15:43:47;0.93;;;0.93;;
8129;SDS011;4106;52.532;13.408;2022-09-09T15:49:03;1.08;;;0.98;;
8129;SDS011;4106;52.532;13.408;2022-09-09T15:51:27;1.17;;;1.08;;
8129;SDS011;4106;52.532;13.408;2022-09-09T15:53:57;2.00;;;1.12;;
8129;SDS011;4106;52.532;13.408;2022-09-09T15:56:27;1.80;;;1.00;;
8129;SDS011;4106;52.532;13.408;2022-09-09T15:58:55;2.12;;;1.10;;
8129;SDS011;4106;52.532;13.408;2022-09-09T16:01:24;1.10;;;1.00;;
8129;SDS011;4106;52.532;13.408;2022-09-09T16:03:52;1.87;;;1.30;;
8129;SDS011;4106;52.532;13.408;2022-09-09T16:06:22;2.72;;;1.10;;
8129;SDS011;4106;52.532;13.408;2022-09-09T16:08:51;1.73;;;1.10;;
8129;SDS011;4106;52.532;13.408;2022-09-09T16:11:21;2.42;;;1.10;;
8129;SDS011;4106;52.532;13.408;2022-09-09T16:13:50;1.20;;;1.10;;
8129;SDS011;4106;52.532;13.408;2022-09-09T16:16:19;1.20;;;1.00;;
8129;SDS011;4106;52.532;13.408;2022-09-09T16:18:48;1.00;;;0.95;;
8129;SDS011;4106;52.532;13.408;2022-09-09T16:21:17;1.20;;;1.15;;
8129;SDS011;4106;52.532;13.408;2022-09-09T16:23:45;2.00;;;1.20;;
8129;SDS011;4106;52.532;13.408;2022-09-09T16:26:14;1.33;;;1.23;;
8129;SDS011;4106;52.532;13.408;2022-09-09T16:28:42;3.20;;;1.17;;
8129;SDS011;4106;52.532;13.408;2022-09-09T16:31:14;2.17;;;1.10;;
8129;SDS011;4106;52.532;13.408;2022-09-09T16:33:40;1.10;;;1.00;;
8129;SDS011;4106;52.532;13.408;2022-09-09T16:36:09;1.23;;;1.00;;
8129;SDS011;4106;52.532;13.408;2022-09-09T16:38:39;1.10;;;1.00;;
8129;SDS011;4106;52.532;13.408;2022-09-09T16:41:09;2.12;;;1.20;;
8129;SDS011;4106;52.532;13.408;2022-09-09T16:43:37;2.47;;;1.30;;
8129;SDS011;4106;52.532;13.408;2022-09-09T16:46:13;2.80;;;1.33;;
8129;SDS011;4106;52.532;13.408;2022-09-09T16:48:41;2.30;;;1.30;;
8129;SDS011;4106;52.532;13.408;2022-09-09T16:51:13;3.60;;;1.40;;
8129;SDS011;4106;52.532;13.408;2022-09-09T16:53:40;2.92;;;1.20;;
8129;SDS011;4106;52.532;13.408;2022-09-09T16:56:13;1.77;;;1.10;;
8129;SDS011;4106;52.532;13.408;2022-09-09T16:58:40;1.23;;;1.00;;
8129;SDS011;4106;52.532;13.408;2022-09-09T17:01:09;1.00;;;1.00;;
8129;SDS011;4106;52.532;13.408;2022-09-09T17:03:39;1.20;;;1.10;;
8129;SDS011;4106;52.532;13.408;2022-09-09T17:06:10;3.60;;;1.35;;
8129;SDS011;4106;52.532;13.408;2022-09-09T17:08:39;1.55;;;1.27;;
8129;SDS011;4106;52.532;13.408;2022-09-09T17:11:11;1.45;;;1.15;;
8129;SDS011;4106;52.532;13.408;2022-09-09T17:13:40;2.60;;;1.20;;
8129;SDS011;4106;52.532;13.408;2022-09-09T17:16:08;8.68;;;2.00;;
8129;SDS011;4106;52.532;13.408;2022-09-09T17:18:37;8.60;;;1.60;;
8129;SDS011;4106;52.532;13.408;2022-09-09T17:21:06;2.45;;;1.30;;
8129;SDS011;4106;52.532;13.408;2022-09-09T17:23:35;1.20;;;1.10;;
8129;SDS011;4106;52.532;13.408;2022-09-09T17:26:04;1.67;;;1.20;;
8129;SDS011;4106;52.532;13.408;2022-09-09T17:28:32;3.30;;;1.48;;
8129;SDS011;4106;52.532;13.408;2022-09-09T17:31:01;3.83;;;1.62;;
8129;SDS011;4106;52.532;13.408;2022-09-09T17:33:30;3.15;;;1.58;;
8129;SDS011;4106;52.532;13.408;2022-09-09T17:35:59;3.08;;;1.60;;
8129;SDS011;4106;52.532;13.408;2022-09-09T17:38:28;1.33;;;1.20;;
8129;SDS011;4106;52.532;13.408;2022-09-09T17:41:02;3.33;;;1.95;;
8129;SDS011;4106;52.532;13.408;2022-09-09T17:43:29;3.45;;;1.85;;
8129;SDS011;4106;52.532;13.408;2022-09-09T17:46:07;1.70;;;1.60;;
8129;SDS011;4106;52.532;13.408;2022-09-09T17:48:36;3.10;;;1.80;;
8129;SDS011;4106;52.532;13.408;2022-09-09T17:51:06;6.12;;;1.75;;
8129;SDS011;4106;52.532;13.408;2022-09-09T17:53:37;3.37;;;1.55;;
8129;SDS011;4106;52.532;13.408;2022-09-09T17:56:06;2.00;;;1.80;;
8129;SDS011;4106;52.532;13.408;2022-09-09T17:58:35;3.58;;;1.65;;
8129;SDS011;4106;52.532;13.408;2022-09-09T18:01:05;2.30;;;1.60;;
8129;SDS011;4106;52.532;13.408;2022-09-09T18:03:34;2.62;;;1.90;;
8129;SDS011;4106;52.532;13.408;2022-09-09T18:06:03;1.80;;;1.70;;
8129;SDS011;4106;52.532;13.408;2022-09-09T18:08:31;1.80;;;1.60;;
8129;SDS011;4106;52.532;13.408;2022-09-09T18:11:00;1.40;;;1.30;;
8129;SDS011;4106;52.532;13.408;2022-09-09T18:13:29;1.52;;;1.30;;
8129;SDS011;4106;52.532;13.408;2022-09-09T18:15:57;2.92;;;1.37;;
8129;SDS011;4106;52.532;13.408;2022-09-09T18:18:26;1.17;;;1.17;;
8129;SDS011;4106;52.532;13.408;2022-09-09T18:20:59;3.80;;;1.60;;
8129;SDS011;4106;52.532;13.408;2022-09-09T18:23:27;3.40;;;1.40;;
8129;SDS011;4106;52.532;13.408;2022-09-09T18:25:56;2.60;;;1.70;;
8129;SDS011;4106;52.532;13.408;2022-09-09T18:28:25;1.85;;;1.60;;
8129;SDS011;4106;52.532;13.408;2022-09-09T18:30:53;6.70;;;1.95;;
8129;SDS011;4106;52.532;13.408;2022-09-09T18:33:22;4.15;;;2.10;;
8129;SDS011;4106;52.532;13.408;2022-09-09T18:35:51;5.75;;;1.83;;
8129;SDS011;4106;52.532;13.408;2022-09-09T18:38:20;3.95;;;2.00;;
8129;SDS011;4106;52.532;13.408;2022-09-09T18:40:49;3.92;;;1.85;;
8129;SDS011;4106;52.532;13.408;2022-09-09T18:43:18;2.03;;;1.60;;
8129;SDS011;4106;52.532;13.408;2022-09-09T18:45:46;2.25;;;1.48;;
8129;SDS011;4106;52.532;13.408;2022-09-09T18:48:15;2.78;;;1.75;;
8129;SDS011;4106;52.532;13.408;2022-09-09T18:50:44;2.15;;;1.90;;
8129;SDS011;4106;52.532;13.408;2022-09-09T18:53:13;3.03;;;1.52;;
8129;SDS011;4106;52.532;13.408;2022-09-09T18:55:42;1.40;;;1.30;;
8129;SDS011;4106;52.532;13.408;2022-09-09T18:58:11;2.87;;;1.67;;
8129;SDS011;4106;52.532;13.408;2022-09-09T19:00:40;3.22;;;1.60;;
8129;SDS011;4106;52.532;13.408;2022-09-09T19:03:08;1.65;;;1.48;;
8129;SDS011;4106;52.532;13.408;2022-09-09T19:05:37;1.77;;;1.52;;
8129;SDS011;4106;52.532;13.408;2022-09-09T19:08:06;2.30;;;1.60;;
8129;SDS011;4106;52.532;13.408;2022-09-09T19:10:36;1.55;;;1.45;;
8129;SDS011;4106;52.532;13.408;2022-09-09T19:13:04;1.65;;;1.30;;
8129;SDS011;4106;52.532;13.408;2022-09-09T19:15:34;1.35;;;1.20;;
8129;SDS011;4106;52.532;13.408;2022-09-09T19:18:03;3.22;;;1.33;;
8129;SDS011;4106;52.532;13.408;2022-09-09T19:20:32;1.50;;;1.40;;
8129;SDS011;4106;52.532;13.408;2022-09-09T19:23:01;2.60;;;1.48;;
8129;SDS011;4106;52.532;13.408;2022-09-09T19:25:34;1.55;;;1.37;;
8129;SDS011;4106;52.532;13.408;2022-09-09T19:27:59;1.70;;;1.52;;
8129;SDS011;4106;52.532;13.408;2022-09-09T19:33:05;1.20;;;1.10;;
8129;SDS011;4106;52.532;13.408;2022-09-09T19:35:34;1.73;;;1.37;;
8129;SDS011;4106;52.532;13.408;2022-09-09T19:38:03;1.58;;;1.10;;
8129;SDS011;4106;52.532;13.408;2022-09-09T19:40:34;1.10;;;1.10;;
8129;SDS011;4106;52.532;13.408;2022-09-09T19:43:01;3.03;;;1.50;;
8129;SDS011;4106;52.532;13.408;2022-09-09T19:45:30;1.60;;;1.50;;
8129;SDS011;4106;52.532;13.408;2022-09-09T19:47:59;4.28;;;1.62;;
8129;SDS011;4106;52.532;13.408;2022-09-09T19:50:27;1.58;;;1.37;;
8129;SDS011;4106;52.532;13.408;2022-09-09T19:52:56;1.40;;;1.30;;
8129;SDS011;4106;52.532;13.408;2022-09-09T19:55:25;1.42;;;1.33;;
8129;SDS011;4106;52.532;13.408;2022-09-09T19:57:54;1.73;;;1.33;;
8129;SDS011;4106;52.532;13.408;2022-09-09T20:00:23;1.40;;;1.30;;
8129;SDS011;4106;52.532;13.408;2022-09-09T20:02:52;2.35;;;1.40;;
8129;SDS011;4106;52.532;13.408;2022-09-09T20:05:20;1.92;;;1.35;;
8129;SDS011;4106;52.532;13.408;2022-09-09T20:07:49;1.98;;;1.27;;
8129;SDS011;4106;52.532;13.408;2022-09-09T20:10:18;3.00;;;1.55;;
8129;SDS011;4106;52.532;13.408;2022-09-09T20:12:47;2.50;;;1.33;;
8129;SDS011;4106;52.532;13.408;2022-09-09T20:15:16;1.42;;;1.25;;
8129;SDS011;4106;52.532;13.408;2022-09-09T20:17:45;1.20;;;1.12;;
8129;SDS011;4106;52.532;13.408;2022-09-09T20:20:14;1.48;;;1.37;;
8129;SDS011;4106;52.532;13.408;2022-09-09T20:22:43;2.30;;;1.75;;
8129;SDS011;4106;52.532;13.408;2022-09-09T20:25:12;2.65;;;1.58;;
8129;SDS011;4106;52.532;13.408;2022-09-09T20:27:41;1.58;;;1.10;;
8129;SDS011;4106;52.532;13.408;2022-09-09T20:30:10;1.40;;;1.30;;
8129;SDS011;4106;52.532;13.408;2022-09-09T20:32:39;1.17;;;1.15;;
8129;SDS011;4106;52.532;13.408;2022-09-09T20:35:07;2.12;;;1.27;;
8129;SDS011;4106;52.532;13.408;2022-09-09T20:37:38;1.27;;;1.17;;
8129;SDS011;4106;52.532;13.408;2022-09-09T20:40:06;2.08;;;1.48;;
8129;SDS011;4106;52.532;13.408;2022-09-09T20:42:34;1.50;;;1.40;;
8129;SDS011;4106;52.532;13.408;2022-09-09T20:45:04;4.15;;;1.37;;
8129;SDS011;4106;52.532;13.408;2022-09-09T20:47:33;1.90;;;1.15;;
8129;SDS011;4106;52.532;13.408;2022-09-09T20:50:02;1.37;;;1.27;;
8129;SDS011;4106;52.532;13.408;2022-09-09T20:52:30;2.00;;;1.33;;
8129;SDS011;4106;52.532;13.408;2022-09-09T20:54:59;2.58;;;1.30;;
8129;SDS011;4106;52.532;13.408;2022-09-09T20:57:28;2.92;;;1.60;;
8129;SDS011;4106;52.532;13.408;2022-09-09T20:59:57;4.78;;;1.77;;
8129;SDS011;4106;52.532;13.408;2022-09-09T21:02:26;13.10;;;2.65;;
8129;SDS011;4106;52.532;13.408;2022-09-09T21:04:55;7.37;;;1.90;;
8129;SDS011;4106;52.532;13.408;2022-09-09T21:07:24;6.78;;;2.42;;
8129;SDS011;4106;52.532;13.408;2022-09-09T21:09:53;3.28;;;1.70;;
8129;SDS011;4106;52.532;13.408;2022-09-09T21:12:22;3.62;;;1.62;;
8129;SDS011;4106;52.532;13.408;2022-09-09T21:14:51;1.55;;;1.45;;
8129;SDS011;4106;52.532;13.408;2022-09-09T21:17:19;2.37;;;1.55;;
8129;SDS011;4106;52.532;13.408;2022-09-09T21:19:48;3.22;;;1.50;;
8129;SDS011;4106;52.532;13.408;2022-09-09T21:22:17;2.87;;;1.65;;
8129;SDS011;4106;52.532;13.408;2022-09-09T21:24:46;2.95;;;1.60;;
8129;SDS011;4106;52.532;13.408;2022-09-09T21:27:15;3.25;;;1.48;;
8129;SDS011;4106;52.532;13.408;2022-09-09T21:29:44;2.50;;;1.75;;
8129;SDS011;4106;52.532;13.408;2022-09-09T21:32:13;2.00;;;1.42;;
8129;SDS011;4106;52.532;13.408;2022-09-09T21:34:42;2.37;;;1.55;;
8129;SDS011;4106;52.532;13.408;2022-09-09T21:37:12;1.48;;;1.37;;
8129;SDS011;4106;52.532;13.408;2022-09-09T21:39:40;2.80;;;1.30;;
8129;SDS011;4106;52.532;13.408;2022-09-09T21:42:09;1.45;;;1.35;;
8129;SDS011;4106;52.532;13.408;2022-09-09T21:44:38;1.80;;;1.52;;
8129;SDS011;4106;52.532;13.408;2022-09-09T21:47:07;2.28;;;1.48;;
8129;SDS011;4106;52.532;13.408;2022-09-09T21:49:36;1.90;;;1.60;;
8129;SDS011;4106;52.532;13.408;2022-09-09T21:52:05;1.52;;;1.42;;
8129;SDS011;4106;52.532;13.408;2022-09-09T21:54:33;1.58;;;1.48;;
8129;SDS011;4106;52.532;13.408;2022-09-09T21:57:02;1.73;;;1.40;;
8129;SDS011;4106;52.532;13.408;2022-09-09T21:59:31;1.50;;;1.40;;
8129;SDS011;4106;52.532;13.408;2022-09-09T22:02:00;1.65;;;1.55;;
8129;SDS011;4106;52.532;13.408;2022-09-09T22:04:29;2.97;;;1.67;;
8129;SDS011;4106;52.532;13.408;2022-09-09T22:06:58;2.10;;;1.65;;
8129;SDS011;4106;52.532;13.408;2022-09-09T22:09:27;1.83;;;1.40;;
8129;SDS011;4106;52.532;13.408;2022-09-09T22:11:55;3.80;;;1.65;;
8129;SDS011;4106;52.532;13.408;2022-09-09T22:14:24;2.08;;;1.37;;
8129;SDS011;4106;52.532;13.408;2022-09-09T22:16:53;1.62;;;1.50;;
8129;SDS011;4106;52.532;13.408;2022-09-09T22:19:22;2.60;;;1.62;;
8129;SDS011;4106;52.532;13.408;2022-09-09T22:21:51;1.62;;;1.52;;
8129;SDS011;4106;52.532;13.408;2022-09-09T22:24:20;1.45;;;1.30;;
8129;SDS011;4106;52.532;13.408;2022-09-09T22:26:48;2.22;;;1.30;;
8129;SDS011;4106;52.532;13.408;2022-09-09T22:29:17;1.52;;;1.42;;
8129;SDS011;4106;52.532;13.408;2022-09-09T22:31:46;1.40;;;1.30;;
8129;SDS011;4106;52.532;13.408;2022-09-09T22:34:15;1.73;;;1.25;;
8129;SDS011;4106;52.532;13.408;2022-09-09T22:36:44;1.83;;;1.40;;
8129;SDS011;4106;52.532;13.408;2022-09-09T22:39:13;2.05;;;1.42;;
8129;SDS011;4106;52.532;13.408;2022-09-09T22:41:42;1.42;;;1.20;;
8129;SDS011;4106;52.532;13.408;2022-09-09T22:44:11;1.55;;;1.45;;
8129;SDS011;4106;52.532;13.408;2022-09-09T22:46:40;2.03;;;1.40;;
8129;SDS011;4106;52.532;13.408;2022-09-09T22:49:09;1.50;;;1.35;;
8129;SDS011;4106;52.532;13.408;2022-09-09T22:51:38;1.45;;;1.35;;
8129;SDS011;4106;52.532;13.408;2022-09-09T22:54:06;1.50;;;1.40;;
8129;SDS011;4106;52.532;13.408;2022-09-09T22:56:35;1.60;;;1.50;;
8129;SDS011;4106;52.532;13.408;2022-09-09T22:59:04;1.67;;;1.55;;
8129;SDS011;4106;52.532;13.408;2022-09-09T23:01:33;1.80;;;1.48;;
8129;SDS011;4106;52.532;13.408;2022-09-09T23:04:02;1.60;;;1.50;;
8129;SDS011;4106;52.532;13.408;2022-09-09T23:06:31;1.70;;;1.60;;
8129;SDS011;4106;52.532;13.408;2022-09-09T23:09:00;1.83;;;1.48;;
8129;SDS011;4106;52.532;13.408;2022-09-09T23:11:30;1.27;;;1.20;;
8129;SDS011;4106;52.532;13.408;2022-09-09T23:13:58;2.47;;;1.75;;
8129;SDS011;4106;52.532;13.408;2022-09-09T23:16:28;1.33;;;1.30;;
8129;SDS011;4106;52.532;13.408;2022-09-09T23:18:56;1.33;;;1.23;;
8129;SDS011;4106;52.532;13.408;2022-09-09T23:21:25;1.35;;;1.25;;
8129;SDS011;4106;52.532;13.408;2022-09-09T23:23:54;2.50;;;1.52;;
8129;SDS011;4106;52.532;13.408;2022-09-09T23:26:23;1.45;;;1.40;;
8129;SDS011;4106;52.532;13.408;2022-09-09T23:28:51;1.75;;;1.65;;
8129;SDS011;4106;52.532;13.408;2022-09-09T23:31:20;1.55;;;1.45;;
8129;SDS011;4106;52.532;13.408;2022-09-09T23:33:49;1.45;;;1.35;;
8129;SDS011;4106;52.532;13.408;2022-09-09T23:36:19;1.40;;;1.30;;
8129;SDS011;4106;52.532;13.408;2022-09-09T23:38:46;1.52;;;1.40;;
8129;SDS011;4106;52.532;13.408;2022-09-09T23:41:16;1.50;;;1.40;;
8129;SDS011;4106;52.532;13.408;2022-09-09T23:43:44;2.97;;;1.60;;
8129;SDS011;4106;52.532;13.408;2022-09-09T23:46:14;1.33;;;1.23;;
8129;SDS011;4106;52.532;13.408;2022-09-09T23:48:42;1.80;;;1.35;;
8129;SDS011;4106;52.532;13.408;2022-09-09T23:51:11;1.50;;;1.30;;
8129;SDS011;4106;52.532;13.408;2022-09-09T23:53:40;1.52;;;1.40;;
8129;SDS011;4106;52.532;13.408;2022-09-09T23:56:08;1.70;;;1.35;;
8129;SDS011;4106;52.532;13.408;2022-09-09T23:58:37;1.70;;;1.20;;
